createdAt,value
2023-04-17T00:00:50.384Z,100150.72
2023-04-17T00:03:18.267Z,100150.50
2023-04-17T00:05:46.394Z,100148.38
2023-04-17T00:08:18.010Z,100137.47
2023-04-17T00:10:53.781Z,100143.38
2023-04-17T00:13:28.346Z,100141.59
2023-04-17T00:15:56.065Z,100142.41
2023-04-17T00:18:23.604Z,100145.06
2023-04-17T00:20:51.228Z,100135.00
2023-04-17T00:23:19.170Z,100136.13
2023-04-17T00:25:46.590Z,100136.25
2023-04-17T00:28:14.087Z,100094.25
2023-04-17T00:30:41.959Z,100139.19
2023-04-17T00:33:09.481Z,100141.63
2023-04-17T00:35:36.977Z,100136.69
2023-04-17T00:38:07.840Z,100128.56
2023-04-17T00:40:35.984Z,100132.81
2023-04-17T00:43:06.522Z,100142.69
2023-04-17T00:45:34.780Z,100126.88
2023-04-17T00:48:04.853Z,100072.31
2023-04-17T00:50:33.328Z,100119.00
2023-04-17T00:53:01.671Z,100122.94
2023-04-17T00:55:31.617Z,100117.78
2023-04-17T00:58:01.048Z,100127.78
2023-04-17T01:00:28.852Z,100122.34
2023-04-17T01:02:58.106Z,100116.00
2023-04-17T01:05:27.276Z,100120.12
2023-04-17T01:07:57.462Z,100118.50
2023-04-17T01:10:24.931Z,100114.87
2023-04-17T01:13:07.520Z,100120.44
2023-04-17T01:15:36.347Z,100068.19
2023-04-17T01:18:06.231Z,100115.09
2023-04-17T01:20:34.774Z,100109.19
2023-04-17T01:23:02.710Z,100103.91
2023-04-17T01:25:30.186Z,100055.25
2023-04-17T01:27:57.715Z,100100.22
2023-04-17T01:30:26.653Z,100100.50
2023-04-17T01:32:55.893Z,100097.81
2023-04-17T01:35:23.410Z,100099.94
2023-04-17T01:37:51.209Z,100098.03
2023-04-17T01:40:18.738Z,100097.81
2023-04-17T01:42:46.210Z,100093.22
2023-04-17T01:45:13.937Z,100066.53
2023-04-17T01:47:41.597Z,100095.38
2023-04-17T01:50:09.562Z,100098.16
2023-04-17T01:52:37.566Z,100057.56
2023-04-17T01:55:05.421Z,100110.41
2023-04-17T01:57:33.346Z,100106.28
2023-04-17T02:00:01.258Z,100110.16
2023-04-17T02:02:28.813Z,100075.59
2023-04-17T02:04:56.709Z,100111.78
2023-04-17T02:07:24.151Z,100117.31
2023-04-17T02:09:51.693Z,100114.19
2023-04-17T02:12:19.493Z,100116.41
2023-04-17T02:14:46.903Z,100117.66
2023-04-17T02:17:14.359Z,100128.72
2023-04-17T02:19:42.387Z,100126.53
2023-04-17T02:22:09.906Z,100121.87
2023-04-17T02:24:37.392Z,100118.56
2023-04-17T02:27:05.431Z,100125.06
2023-04-17T02:29:33.366Z,100116.94
2023-04-17T02:32:00.911Z,100120.56
2023-04-17T02:34:28.638Z,100119.31
2023-04-17T02:36:56.550Z,100116.81
2023-04-17T02:39:25.388Z,100123.47
2023-04-17T02:41:53.641Z,100130.09
2023-04-17T02:44:21.211Z,100124.16
2023-04-17T02:46:48.648Z,100128.19
2023-04-17T02:49:16.573Z,100115.75
2023-04-17T02:51:44.234Z,100123.06
2023-04-17T02:54:11.724Z,100132.47
2023-04-17T02:56:39.507Z,100116.25
2023-04-17T02:59:07.022Z,100119.59
2023-04-17T03:01:37.714Z,100121.41
2023-04-17T03:04:06.238Z,100124.69
2023-04-17T03:06:33.959Z,100127.03
2023-04-17T03:09:01.663Z,100130.91
2023-04-17T03:11:29.477Z,100081.75
2023-04-17T03:13:56.983Z,100125.06
2023-04-17T03:16:24.542Z,100130.59
2023-04-17T03:18:53.278Z,100137.66
2023-04-17T03:21:20.948Z,100135.56
2023-04-17T03:23:49.964Z,100138.87
2023-04-17T03:26:17.970Z,100084.50
2023-04-17T03:28:45.618Z,100129.38
2023-04-17T03:31:14.297Z,100133.62
2023-04-17T03:33:42.093Z,100131.19
2023-04-17T03:36:09.721Z,100132.69
2023-04-17T03:38:38.036Z,100132.97
2023-04-17T03:41:06.360Z,100132.56
2023-04-17T03:43:33.818Z,100127.72
2023-04-17T03:46:01.775Z,100123.69
2023-04-17T03:48:30.007Z,100133.41
2023-04-17T03:50:57.785Z,100135.87
2023-04-17T03:53:25.558Z,100139.22
2023-04-17T03:55:54.080Z,100145.44
2023-04-17T03:58:22.378Z,100098.34
2023-04-17T04:00:55.327Z,100138.94
2023-04-17T04:03:23.885Z,100141.56
2023-04-17T04:05:51.623Z,100149.72
2023-04-17T04:08:19.541Z,100145.31
2023-04-17T04:10:47.937Z,100151.12
2023-04-17T04:13:15.778Z,100110.94
2023-04-17T04:15:43.812Z,100076.16
2023-04-17T04:18:12.217Z,100161.50
2023-04-17T04:20:41.434Z,100162.47
2023-04-17T04:23:09.741Z,100162.97
2023-04-17T04:25:41.726Z,100174.19
2023-04-17T04:28:10.779Z,100171.97
2023-04-17T04:30:39.337Z,100169.34
2023-04-17T04:33:08.436Z,100165.44
2023-04-17T04:35:37.214Z,100172.66
2023-04-17T04:38:06.183Z,100161.03
2023-04-17T04:40:38.388Z,100164.22
2023-04-17T04:43:07.364Z,100172.37
2023-04-17T04:45:35.029Z,100167.34
2023-04-17T04:48:03.680Z,100178.69
2023-04-17T04:50:31.873Z,100128.16
2023-04-17T04:52:59.656Z,100174.47
2023-04-17T04:55:30.739Z,100177.94
2023-04-17T04:57:59.264Z,100179.63
2023-04-17T05:00:26.896Z,100188.38
2023-04-17T05:02:55.047Z,100138.59
2023-04-17T05:05:25.348Z,100178.34
2023-04-17T05:07:55.813Z,100149.09
2023-04-17T05:10:24.486Z,100185.78
2023-04-17T05:12:52.176Z,100185.75
2023-04-17T05:15:19.717Z,100182.25
2023-04-17T05:17:47.927Z,100186.25
2023-04-17T05:20:15.627Z,100191.84
2023-04-17T05:22:44.312Z,100199.19
2023-04-17T05:25:12.295Z,100189.22
2023-04-17T05:27:39.720Z,100190.72
2023-04-17T05:30:08.068Z,100190.88
2023-04-17T05:32:36.631Z,100191.25
2023-04-17T05:35:05.948Z,100144.81
2023-04-17T05:37:33.477Z,100186.84
2023-04-17T05:40:01.482Z,100195.56
2023-04-17T05:42:29.364Z,100190.44
2023-04-17T05:44:56.867Z,100148.06
2023-04-17T05:47:24.634Z,100184.50
2023-04-17T05:49:57.395Z,100186.25
2023-04-17T05:52:26.245Z,100192.56
2023-04-17T05:54:55.142Z,100182.81
2023-04-17T05:57:23.612Z,100185.59
2023-04-17T05:59:51.774Z,100195.25
2023-04-17T06:02:19.709Z,100165.06
2023-04-17T06:04:48.058Z,100160.62
2023-04-17T06:07:16.095Z,100197.59
2023-04-17T06:09:43.695Z,100206.37
2023-04-17T06:12:15.982Z,100207.41
2023-04-17T06:14:43.869Z,100201.31
2023-04-17T06:17:12.393Z,100207.72
2023-04-17T06:19:40.093Z,100206.81
2023-04-17T06:22:08.066Z,100173.34
2023-04-17T06:24:37.879Z,100211.84
2023-04-17T06:27:05.339Z,100217.19
2023-04-17T06:29:33.044Z,100223.31
2023-04-17T06:32:01.161Z,100222.25
2023-04-17T06:34:28.801Z,100226.75
2023-04-17T06:36:56.484Z,100213.63
2023-04-17T06:39:24.616Z,100185.22
2023-04-17T06:41:52.403Z,100189.00
2023-04-17T06:44:27.159Z,100231.78
2023-04-17T06:46:55.147Z,100234.13
2023-04-17T06:49:22.691Z,100232.41
2023-04-17T06:51:51.540Z,100231.84
2023-04-17T06:54:19.080Z,100228.09
2023-04-17T06:56:46.572Z,100234.91
2023-04-17T06:59:14.372Z,100238.75
2023-04-17T07:01:42.424Z,100243.28
2023-04-17T07:04:10.858Z,100244.13
2023-04-17T07:06:39.570Z,100245.13
2023-04-17T07:09:07.165Z,100240.66
2023-04-17T07:11:36.024Z,100244.97
2023-04-17T07:14:04.931Z,100248.41
2023-04-17T07:16:32.626Z,100248.62
2023-04-17T07:19:00.263Z,100258.38
2023-04-17T07:21:28.319Z,100252.25
2023-04-17T07:23:55.982Z,100254.09
2023-04-17T07:26:23.864Z,100266.34
2023-04-17T07:28:51.842Z,100256.91
2023-04-17T07:31:19.396Z,100256.91
2023-04-17T07:33:46.987Z,100267.19
2023-04-17T07:36:14.828Z,100262.84
2023-04-17T07:38:42.644Z,100263.69
2023-04-17T07:41:11.690Z,100266.81
2023-04-17T07:43:39.594Z,100257.03
2023-04-17T07:46:07.251Z,100266.47
2023-04-17T07:48:34.800Z,100266.66
2023-04-17T07:51:02.607Z,100269.47
2023-04-17T07:53:30.399Z,100267.28
2023-04-17T07:55:58.436Z,100264.22
2023-04-17T07:58:27.190Z,100233.66
2023-04-17T08:00:55.303Z,100279.06
2023-04-17T08:03:24.437Z,100277.50
2023-04-17T08:05:52.384Z,100275.81
2023-04-17T08:08:20.759Z,100277.19
2023-04-17T08:10:48.920Z,100278.75
2023-04-17T08:13:16.897Z,100277.66
2023-04-17T08:15:45.652Z,100278.13
2023-04-17T08:18:13.973Z,100282.78
2023-04-17T08:20:41.934Z,100286.72
2023-04-17T08:23:09.422Z,100286.78
2023-04-17T08:25:37.864Z,100290.59
2023-04-17T08:28:05.562Z,100278.78
2023-04-17T08:30:33.071Z,100244.47
2023-04-17T08:33:01.022Z,100287.34
2023-04-17T08:35:28.543Z,100283.91
2023-04-17T08:37:58.858Z,100246.31
2023-04-17T08:40:27.000Z,100278.66
2023-04-17T08:42:54.907Z,100284.56
2023-04-17T08:45:24.665Z,100290.31
2023-04-17T08:47:52.706Z,100284.03
2023-04-17T08:50:22.084Z,100287.44
2023-04-17T08:52:54.701Z,100292.06
2023-04-17T08:55:29.172Z,100282.06
2023-04-17T08:57:59.150Z,100295.34
2023-04-17T09:00:32.010Z,100286.09
2023-04-17T09:03:01.663Z,100294.41
2023-04-17T09:05:33.602Z,100281.47
2023-04-17T09:08:07.723Z,100292.94
2023-04-17T09:10:41.147Z,100291.81
2023-04-17T09:13:17.417Z,100286.31
2023-04-17T09:15:47.567Z,100281.47
2023-04-17T09:18:31.122Z,100281.28
2023-04-17T09:21:00.557Z,100270.06
2023-04-17T09:23:30.293Z,100267.72
2023-04-17T09:26:15.028Z,100270.28
2023-04-17T09:29:01.811Z,100274.72
2023-04-17T09:31:31.442Z,100274.75
2023-04-17T09:34:01.665Z,100276.12
2023-04-17T09:36:31.238Z,100281.69
2023-04-17T09:39:02.305Z,100280.59
2023-04-17T09:41:32.541Z,100241.91
2023-04-17T09:50:29.118Z,100286.88
2023-04-17T09:52:57.507Z,100240.66
2023-04-17T09:55:29.396Z,100276.00
2023-04-17T09:57:58.907Z,100274.81
2023-04-17T10:00:27.660Z,100274.41
2023-04-17T10:02:58.181Z,100236.84
2023-04-17T10:05:31.665Z,100275.59
2023-04-17T10:08:00.039Z,100275.84
2023-04-17T10:10:32.472Z,100264.16
2023-04-17T10:13:02.716Z,100270.06
2023-04-17T10:15:31.119Z,100264.34
2023-04-17T10:18:23.836Z,100260.56
2023-04-17T10:20:55.602Z,100252.16
2023-04-17T10:23:31.433Z,100246.63
2023-04-17T10:26:27.223Z,100241.56
2023-04-17T10:28:57.808Z,100247.94
2023-04-17T10:32:04.014Z,100213.91
2023-04-17T10:34:37.200Z,100252.47
2023-04-17T10:37:05.130Z,100232.19
2023-04-17T10:39:52.864Z,100246.00
2023-04-17T10:42:22.332Z,100244.50
2023-04-17T10:44:51.215Z,100215.94
2023-04-17T10:47:22.867Z,100247.34
2023-04-17T10:49:50.983Z,100243.00
2023-04-17T10:52:34.742Z,100243.38
2023-04-17T10:55:23.728Z,100246.38
2023-04-17T10:58:04.666Z,100238.09
2023-04-17T11:00:36.839Z,100199.28
2023-04-17T11:03:06.042Z,100233.63
2023-04-17T11:05:35.682Z,100225.25
2023-04-17T11:08:03.456Z,100238.25
2023-04-17T11:10:36.768Z,100233.94
2023-04-17T11:13:04.710Z,100245.88
2023-04-17T11:15:34.533Z,100243.72
2023-04-17T11:18:03.905Z,100242.28
2023-04-17T11:20:33.814Z,100242.06
2023-04-17T11:23:06.161Z,100239.94
2023-04-17T11:25:34.816Z,100240.44
2023-04-17T11:28:05.934Z,100232.44
2023-04-17T11:30:36.284Z,100229.22
2023-04-17T11:33:06.245Z,100187.00
2023-04-17T11:35:35.632Z,100221.16
2023-04-17T11:38:20.919Z,100220.88
2023-04-17T11:41:00.995Z,100236.25
2023-04-17T11:43:34.915Z,100226.84
2023-04-17T11:46:03.529Z,100245.03
2023-04-17T11:48:32.482Z,100241.06
2023-04-17T11:51:02.462Z,100246.38
2023-04-17T11:53:31.133Z,100233.13
2023-04-17T11:56:19.126Z,100235.25
2023-04-17T11:58:55.063Z,100192.34
2023-04-17T12:01:27.666Z,100230.44
2023-04-17T12:03:59.589Z,100239.06
2023-04-17T12:06:37.809Z,100233.87
2023-04-17T12:09:07.206Z,100232.19
2023-04-17T12:11:35.913Z,100228.47
2023-04-17T12:14:05.527Z,100232.50
2023-04-17T12:16:33.506Z,100226.34
2023-04-17T12:19:01.553Z,100232.19
2023-04-17T12:21:29.347Z,100230.78
2023-04-17T12:23:57.138Z,100227.53
2023-04-17T12:26:28.582Z,100231.50
2023-04-17T12:28:56.960Z,100224.13
2023-04-17T12:31:24.707Z,100223.16
2023-04-17T12:33:52.679Z,100218.34
2023-04-17T12:36:20.201Z,100218.84
2023-04-17T12:38:48.055Z,100215.62
2023-04-17T12:41:15.661Z,100216.75
2023-04-17T12:43:43.113Z,100173.47
2023-04-17T12:46:11.246Z,100211.47
2023-04-17T12:48:38.904Z,100172.13
2023-04-17T12:51:07.492Z,100213.78
2023-04-17T12:53:36.309Z,100211.91
2023-04-17T12:56:03.991Z,100202.41
2023-04-17T12:58:32.345Z,100200.44
2023-04-17T13:01:00.335Z,100206.28
2023-04-17T13:03:27.990Z,100200.53
2023-04-17T13:05:55.702Z,100201.38
2023-04-17T13:08:23.975Z,100198.25
2023-04-17T13:10:51.507Z,100190.19
2023-04-17T13:13:19.075Z,100185.34
2023-04-17T13:15:48.172Z,100189.66
2023-04-17T13:18:15.852Z,100191.56
2023-04-17T13:20:43.456Z,100151.75
2023-04-17T13:23:12.020Z,100188.91
2023-04-17T13:25:39.563Z,100183.09
2023-04-17T13:28:07.181Z,100184.09
2023-04-17T13:30:37.478Z,100175.66
2023-04-17T13:33:05.232Z,100169.06
2023-04-17T13:35:32.871Z,100175.81
2023-04-17T13:38:02.992Z,100138.56
2023-04-17T13:40:31.345Z,100175.56
2023-04-17T13:42:58.954Z,100178.22
2023-04-17T13:45:26.749Z,100175.72
2023-04-17T13:47:54.395Z,100175.38
2023-04-17T13:50:22.281Z,100178.12
2023-04-17T13:52:50.084Z,100175.81
2023-04-17T13:55:17.720Z,100177.13
2023-04-17T13:57:45.448Z,100133.44
2023-04-17T14:00:13.987Z,100175.47
2023-04-17T14:02:42.693Z,100174.75
2023-04-17T14:05:10.402Z,100184.66
2023-04-17T14:07:38.281Z,100185.84
2023-04-17T14:10:07.109Z,100187.81
2023-04-17T14:12:34.705Z,100186.44
2023-04-17T14:15:02.424Z,100187.66
2023-04-17T14:17:30.458Z,100188.88
2023-04-17T14:19:57.951Z,100182.53
2023-04-17T14:22:25.455Z,100191.88
2023-04-17T14:24:53.175Z,100178.47
2023-04-17T14:27:20.645Z,100182.13
2023-04-17T14:29:48.181Z,100185.25
2023-04-17T14:32:16.029Z,100178.59
2023-04-17T14:34:43.553Z,100187.91
2023-04-17T14:37:11.029Z,100182.97
2023-04-17T14:39:38.696Z,100183.09
2023-04-17T14:42:06.105Z,100181.69
2023-04-17T14:44:33.631Z,100190.31
2023-04-17T14:47:02.261Z,100142.50
2023-04-17T14:49:30.237Z,100182.72
2023-04-17T14:51:57.734Z,100176.37
2023-04-17T14:54:25.550Z,100170.28
2023-04-17T14:56:53.370Z,100138.03
2023-04-17T14:59:20.903Z,100170.19
2023-04-17T15:01:49.141Z,100171.84
2023-04-17T15:04:16.969Z,100165.84
2023-04-17T15:06:44.504Z,100171.00
2023-04-17T15:09:13.402Z,100163.53
2023-04-17T15:11:41.204Z,100159.25
2023-04-17T15:14:08.713Z,100165.47
2023-04-17T15:16:36.446Z,100164.38
2023-04-17T15:19:03.976Z,100157.25
2023-04-17T15:21:31.675Z,100168.31
2023-04-17T15:23:59.627Z,100164.69
2023-04-17T15:26:27.421Z,100159.72
2023-04-17T15:28:54.965Z,100161.34
2023-04-17T15:31:22.768Z,100128.78
2023-04-17T15:33:50.497Z,100168.31
2023-04-17T15:36:18.144Z,100165.66
2023-04-17T15:38:46.237Z,100174.00
2023-04-17T15:41:13.855Z,100174.72
2023-04-17T15:43:41.381Z,100174.28
2023-04-17T15:46:09.201Z,100167.50
2023-04-17T15:48:36.957Z,100139.56
2023-04-17T15:51:04.746Z,100141.97
2023-04-17T15:53:32.472Z,100184.88
2023-04-17T15:55:59.933Z,100172.16
2023-04-17T15:58:27.398Z,100170.69
2023-04-17T16:00:55.860Z,100186.16
2023-04-17T16:03:23.692Z,100184.22
2023-04-17T16:05:52.896Z,100176.00
2023-04-17T16:08:21.472Z,100183.66
2023-04-17T16:10:49.332Z,100182.38
2023-04-17T16:13:16.950Z,100175.97
2023-04-17T16:15:45.051Z,100178.34
2023-04-17T16:18:13.020Z,100177.56
2023-04-17T16:20:40.537Z,100179.59
2023-04-17T16:23:08.123Z,100179.59
2023-04-17T16:25:41.738Z,100132.56
2023-04-17T16:28:09.204Z,100179.31
2023-04-17T16:30:36.914Z,100186.59
2023-04-17T16:33:04.702Z,100187.78
2023-04-17T16:35:32.132Z,100138.91
2023-04-17T16:38:01.508Z,100179.50
2023-04-17T16:40:30.928Z,100181.69
2023-04-17T16:42:58.376Z,100185.87
2023-04-17T16:45:26.061Z,100185.22
2023-04-17T16:47:53.610Z,100188.59
2023-04-17T16:50:23.203Z,100154.66
2023-04-17T16:52:52.219Z,100186.00
2023-04-17T16:55:19.638Z,100189.50
2023-04-17T16:57:48.031Z,100190.38
2023-04-17T17:00:16.314Z,100193.91
2023-04-17T17:02:43.922Z,100189.78
2023-04-17T17:05:11.746Z,100188.19
2023-04-17T17:07:39.546Z,100147.62
2023-04-17T17:10:07.814Z,100153.59
2023-04-17T17:12:35.260Z,100179.19
2023-04-17T17:15:03.773Z,100192.09
2023-04-17T17:17:31.736Z,100176.91
2023-04-17T17:19:59.391Z,100188.38
2023-04-17T17:22:27.197Z,100181.94
2023-04-17T17:24:56.125Z,100186.28
2023-04-17T17:27:23.636Z,100183.25
2023-04-17T17:29:55.457Z,100189.06
2023-04-17T17:32:23.422Z,100185.09
2023-04-17T17:34:52.593Z,100191.56
2023-04-17T17:37:20.608Z,100188.94
2023-04-17T17:39:48.571Z,100162.69
2023-04-17T17:42:16.418Z,100194.41
2023-04-17T17:44:43.822Z,100196.56
2023-04-17T17:47:11.950Z,100161.88
2023-04-17T17:49:40.056Z,100199.91
2023-04-17T17:52:07.781Z,100200.06
2023-04-17T17:54:36.984Z,100199.06
2023-04-17T17:57:06.036Z,100203.37
2023-04-17T17:59:34.109Z,100210.47
2023-04-17T18:02:02.459Z,100201.88
2023-04-17T18:04:30.486Z,100213.75
2023-04-17T18:06:58.330Z,100220.37
2023-04-17T18:09:25.895Z,100176.06
2023-04-17T18:11:53.714Z,100222.53
2023-04-17T18:14:21.290Z,100226.00
2023-04-17T18:16:48.961Z,100224.50
2023-04-17T18:19:16.976Z,100223.00
2023-04-17T18:21:47.249Z,100225.62
2023-04-17T18:24:15.570Z,100225.50
2023-04-17T18:26:43.705Z,100219.87
2023-04-17T18:29:11.371Z,100219.38
2023-04-17T18:31:39.253Z,100228.47
2023-04-17T18:34:07.172Z,100231.75
2023-04-17T18:36:34.907Z,100223.50
2023-04-17T18:39:02.527Z,100205.00
2023-04-17T18:41:30.750Z,100229.44
2023-04-17T18:43:58.418Z,100227.09
2023-04-17T18:46:27.145Z,100230.75
2023-04-17T18:48:55.458Z,100234.56
2023-04-17T18:51:23.308Z,100232.06
2023-04-17T18:53:51.333Z,100231.41
2023-04-17T18:56:19.500Z,100239.66
2023-04-17T18:58:47.364Z,100235.84
2023-04-17T19:01:15.380Z,100234.53
2023-04-17T19:03:43.762Z,100230.06
2023-04-17T19:06:11.425Z,100213.19
2023-04-17T19:08:42.203Z,100237.09
2023-04-17T19:11:10.281Z,100240.59
2023-04-17T19:13:38.686Z,100249.50
2023-04-17T19:16:06.334Z,100243.22
2023-04-17T19:18:34.616Z,100246.87
2023-04-17T19:21:02.370Z,100245.03
2023-04-17T19:23:30.139Z,100264.25
2023-04-17T19:25:58.400Z,100269.34
2023-04-17T19:28:27.471Z,100250.81
2023-04-17T19:30:56.249Z,100262.72
2023-04-17T19:33:24.313Z,100265.69
2023-04-17T19:35:52.430Z,100270.28
2023-04-17T19:38:20.222Z,100273.22
2023-04-17T19:41:15.217Z,100261.19
2023-04-17T19:43:47.084Z,100266.78
2023-04-17T19:46:15.915Z,100259.03
2023-04-17T19:48:44.777Z,100258.19
2023-04-17T19:51:14.410Z,100261.00
2023-04-17T19:53:43.860Z,100261.00
2023-04-17T19:56:12.025Z,100262.97
2023-04-17T19:58:41.149Z,100254.37
2023-04-17T20:01:09.380Z,100252.69
2023-04-17T20:03:39.387Z,100250.56
2023-04-17T20:06:08.001Z,100263.25
2023-04-17T20:08:36.140Z,100214.94
2023-04-17T20:11:06.544Z,100256.47
2023-04-17T20:13:34.533Z,100256.66
2023-04-17T20:16:02.406Z,100248.22
2023-04-17T20:18:30.275Z,100245.56
2023-04-17T20:20:58.166Z,100206.13
2023-04-17T20:23:25.687Z,100218.03
2023-04-17T20:25:53.520Z,100206.91
2023-04-17T20:28:21.382Z,100259.00
2023-04-17T20:30:49.632Z,100254.84
2023-04-17T20:33:17.725Z,100256.16
2023-04-17T20:35:45.324Z,100256.47
2023-04-17T20:38:13.527Z,100261.75
2023-04-17T20:40:41.554Z,100276.91
2023-04-17T20:43:09.318Z,100277.03
2023-04-17T20:45:36.977Z,100270.28
2023-04-17T20:48:04.977Z,100278.19
2023-04-17T20:50:32.419Z,100274.72
2023-04-17T20:53:00.319Z,100274.37
2023-04-17T20:55:28.163Z,100277.47
2023-04-17T20:57:55.759Z,100272.34
2023-04-17T21:00:23.321Z,100278.63
2023-04-17T21:02:51.152Z,100256.00
2023-04-17T21:05:19.409Z,100263.22
2023-04-17T21:07:47.462Z,100227.97
2023-04-17T21:10:15.864Z,100277.25
2023-04-17T21:12:43.402Z,100272.34
2023-04-17T21:15:11.111Z,100236.91
2023-04-17T21:17:38.871Z,100282.13
2023-04-17T21:20:07.126Z,100275.56
2023-04-17T21:22:36.798Z,100281.81
2023-04-17T21:25:04.913Z,100280.81
2023-04-17T21:27:32.522Z,100278.50
2023-04-17T21:30:00.252Z,100292.03
2023-04-17T21:32:28.098Z,100283.16
2023-04-17T21:34:55.568Z,100281.66
2023-04-17T21:37:23.077Z,100242.38
2023-04-17T21:39:50.821Z,100291.37
2023-04-17T21:42:18.411Z,100232.50
2023-04-17T21:44:46.288Z,100285.13
2023-04-17T21:47:16.500Z,100284.31
2023-04-17T21:49:46.929Z,100291.37
2023-04-17T21:52:17.494Z,100285.28
2023-04-17T21:54:44.953Z,100283.09
2023-04-17T21:57:12.484Z,100280.16
2023-04-17T21:59:40.570Z,100246.69
2023-04-17T22:02:08.297Z,100292.69
2023-04-17T22:04:36.353Z,100267.63
2023-04-17T22:07:03.863Z,100290.81
2023-04-17T22:09:31.534Z,100299.25
2023-04-17T22:11:59.308Z,100298.59
2023-04-17T22:14:26.732Z,100301.16
2023-04-17T22:16:54.247Z,100300.69
2023-04-17T22:19:22.039Z,100294.06
2023-04-17T22:21:49.502Z,100293.25
2023-04-17T22:24:16.920Z,100298.66
2023-04-17T22:26:44.685Z,100300.94
2023-04-17T22:29:12.126Z,100302.38
2023-04-17T22:31:40.567Z,100302.06
2023-04-17T22:34:08.279Z,100303.03
2023-04-17T22:36:36.729Z,100302.38
2023-04-17T22:39:04.143Z,100309.09
2023-04-17T22:41:32.707Z,100311.72
2023-04-17T22:44:00.219Z,100270.53
2023-04-17T22:46:27.756Z,100321.50
2023-04-17T22:48:57.852Z,100293.34
2023-04-17T22:51:29.718Z,100304.97
2023-04-17T22:53:59.870Z,100308.34
2023-04-17T22:56:27.465Z,100306.66
2023-04-17T22:58:54.888Z,100312.91
2023-04-17T23:01:22.834Z,100318.91
2023-04-17T23:03:50.921Z,100312.88
2023-04-17T23:06:19.244Z,100315.88
2023-04-17T23:08:47.030Z,100314.44
2023-04-17T23:11:14.488Z,100320.53
2023-04-17T23:13:41.964Z,100325.34
2023-04-17T23:16:10.130Z,100279.47
2023-04-17T23:18:37.731Z,100308.31
2023-04-17T23:21:05.321Z,100314.50
2023-04-17T23:23:33.127Z,100321.28
2023-04-17T23:26:00.588Z,100274.59
2023-04-17T23:28:30.577Z,100317.66
2023-04-17T23:30:58.697Z,100316.00
2023-04-17T23:33:26.793Z,100320.47
2023-04-17T23:35:54.359Z,100274.75
2023-04-17T23:38:22.270Z,100323.91
2023-04-17T23:40:49.719Z,100286.28
2023-04-17T23:43:17.496Z,100332.00
2023-04-17T23:45:45.590Z,100266.34
2023-04-17T23:48:13.172Z,100320.78
2023-04-17T23:50:41.199Z,100280.59
2023-04-17T23:53:09.331Z,100323.53
2023-04-17T23:55:37.136Z,100321.81
2023-04-17T23:58:04.585Z,100287.16
